createdAt,value
2022-08-19T00:01:53.466Z,5.38
2022-08-19T00:04:24.081Z,10.20
2022-08-19T00:06:52.007Z,12.63
2022-08-19T00:09:20.933Z,12.82
2022-08-19T00:11:47.769Z,13.48
2022-08-19T00:14:17.301Z,11.30
2022-08-19T00:16:46.543Z,12.80
2022-08-19T00:19:14.035Z,10.45
2022-08-19T00:21:40.954Z,7.00
2022-08-19T00:24:10.047Z,7.60
2022-08-19T00:26:37.541Z,12.68
2022-08-19T00:29:05.879Z,14.88
2022-08-19T00:31:32.859Z,7.97
2022-08-19T00:34:00.170Z,11.95
2022-08-19T00:36:27.285Z,9.25
2022-08-19T00:38:54.305Z,9.90
2022-08-19T00:41:24.266Z,7.10
2022-08-19T00:44:16.252Z,10.15
2022-08-19T00:46:55.285Z,7.03
2022-08-19T00:49:37.585Z,11.15
2022-08-19T00:52:09.817Z,9.70
2022-08-19T00:57:08.859Z,10.00
2022-08-19T01:00:00.516Z,9.02
2022-08-19T01:02:28.278Z,15.65
2022-08-19T01:04:55.633Z,6.22
2022-08-19T01:07:22.996Z,10.07
2022-08-19T01:09:50.638Z,10.13
2022-08-19T01:12:18.593Z,14.52
2022-08-19T01:14:46.301Z,7.55
2022-08-19T01:17:15.026Z,15.25
2022-08-19T01:19:44.800Z,6.80
2022-08-19T01:22:30.093Z,9.15
2022-08-19T01:24:58.668Z,5.60
2022-08-19T01:27:26.587Z,7.93
2022-08-19T01:29:56.694Z,8.93
2022-08-19T01:32:33.997Z,11.30
2022-08-19T01:35:02.855Z,14.57
2022-08-19T01:37:31.570Z,13.50
2022-08-19T01:39:58.678Z,16.52
2022-08-19T01:42:29.968Z,14.55
2022-08-19T01:44:57.567Z,9.38
2022-08-19T01:47:24.136Z,10.68
2022-08-19T01:49:51.008Z,15.90
2022-08-19T01:52:17.680Z,8.50
2022-08-19T01:54:44.305Z,11.35
2022-08-19T01:57:13.631Z,18.63
2022-08-19T01:59:42.242Z,16.65
2022-08-19T02:02:09.414Z,10.40
2022-08-19T02:04:38.981Z,15.15
2022-08-19T02:07:06.531Z,14.70
2022-08-19T02:09:33.775Z,13.80
2022-08-19T02:12:00.702Z,9.98
2022-08-19T02:14:28.042Z,13.45
2022-08-19T02:16:54.611Z,12.32
2022-08-19T02:19:21.340Z,9.15
2022-08-19T02:21:47.947Z,13.50
2022-08-19T02:24:14.642Z,11.68
2022-08-19T02:26:41.356Z,7.40
2022-08-19T02:29:07.967Z,10.90
2022-08-19T02:31:34.591Z,11.27
2022-08-19T02:34:02.021Z,14.93
2022-08-19T02:36:29.125Z,7.22
2022-08-19T02:38:57.799Z,19.42
2022-08-19T02:41:30.580Z,12.00
2022-08-19T02:44:22.941Z,15.18
2022-08-19T02:46:47.968Z,10.38
2022-08-19T02:49:17.424Z,13.77
2022-08-19T02:51:46.526Z,13.40
2022-08-19T02:54:13.906Z,11.05
2022-08-19T02:56:42.842Z,9.40
2022-08-19T02:59:11.397Z,10.82
2022-08-19T03:01:40.731Z,16.10
2022-08-19T03:04:09.192Z,20.48
2022-08-19T03:06:40.750Z,11.38
2022-08-19T03:09:07.800Z,23.88
2022-08-19T03:11:34.826Z,13.48
2022-08-19T03:14:03.000Z,11.63
2022-08-19T03:16:33.549Z,8.98
2022-08-19T03:19:02.917Z,8.75
2022-08-19T03:21:32.929Z,12.27
2022-08-19T03:24:01.931Z,11.68
2022-08-19T03:26:29.813Z,15.90
2022-08-19T03:28:58.525Z,27.55
2022-08-19T03:31:43.832Z,15.52
2022-08-19T03:34:18.825Z,7.82
2022-08-19T03:36:46.498Z,15.10
2022-08-19T03:39:16.052Z,12.18
2022-08-19T03:41:46.307Z,10.32
2022-08-19T03:46:46.687Z,12.48
2022-08-19T03:49:14.248Z,9.05
2022-08-19T03:51:43.715Z,12.90
2022-08-19T03:54:13.841Z,16.25
2022-08-19T03:56:42.495Z,16.15
2022-08-19T03:59:12.148Z,10.18
2022-08-19T04:01:38.764Z,15.63
2022-08-19T04:04:05.998Z,15.30
2022-08-19T04:06:39.413Z,9.50
2022-08-19T04:09:10.040Z,15.00
2022-08-19T04:11:44.614Z,13.10
2022-08-19T04:14:18.795Z,12.80
2022-08-19T04:16:46.185Z,13.50
2022-08-19T04:19:14.580Z,15.48
2022-08-19T04:21:41.604Z,12.27
2022-08-19T04:24:13.777Z,13.07
2022-08-19T04:26:40.817Z,11.43
2022-08-19T04:29:12.692Z,13.35
2022-08-19T04:31:41.077Z,22.67
2022-08-19T04:34:11.871Z,18.63
2022-08-19T04:36:41.550Z,14.98
2022-08-19T04:39:15.127Z,15.20
2022-08-19T04:42:00.260Z,12.27
2022-08-19T04:44:27.346Z,15.82
2022-08-19T04:46:54.135Z,15.10
2022-08-19T04:49:23.475Z,16.73
2022-08-19T04:51:53.422Z,14.48
2022-08-19T04:54:37.373Z,18.77
2022-08-19T04:57:08.418Z,12.35
2022-08-19T04:59:35.728Z,21.88
2022-08-19T05:02:02.404Z,18.45
2022-08-19T05:04:33.100Z,17.85
2022-08-19T05:07:01.967Z,14.77
2022-08-19T05:09:55.361Z,16.70
2022-08-19T05:12:17.697Z,18.83
2022-08-19T05:14:46.930Z,15.40
2022-08-19T05:17:34.578Z,18.65
2022-08-19T05:20:20.496Z,24.20
2022-08-19T05:22:48.729Z,15.02
2022-08-19T05:25:20.201Z,18.27
2022-08-19T05:27:48.004Z,15.50
2022-08-19T05:30:15.477Z,18.48
2022-08-19T05:32:42.172Z,18.88
2022-08-19T05:35:10.411Z,18.27
2022-08-19T05:37:37.383Z,16.45
2022-08-19T05:40:05.060Z,23.58
2022-08-19T05:42:33.143Z,19.63
2022-08-19T05:44:59.758Z,20.58
2022-08-19T05:47:26.852Z,16.17
2022-08-19T05:49:53.570Z,17.42
2022-08-19T05:52:25.427Z,22.95
2022-08-19T05:54:53.156Z,21.10
2022-08-19T05:57:20.773Z,18.75
2022-08-19T05:59:52.758Z,18.67
2022-08-19T06:02:20.177Z,17.83
2022-08-19T06:04:47.002Z,18.52
2022-08-19T06:07:13.711Z,23.55
2022-08-19T06:09:41.427Z,24.77
2022-08-19T06:12:21.359Z,18.30
2022-08-19T06:14:48.020Z,20.45
2022-08-19T06:17:28.006Z,19.38
2022-08-19T06:19:54.658Z,23.23
2022-08-19T06:22:21.289Z,23.63
2022-08-19T06:24:48.210Z,25.52
2022-08-19T06:27:14.945Z,17.02
2022-08-19T06:29:43.522Z,21.75
2022-08-19T06:32:10.159Z,17.92
2022-08-19T06:34:36.788Z,18.42
2022-08-19T06:37:03.979Z,22.98
2022-08-19T06:39:38.136Z,20.75
2022-08-19T06:42:07.979Z,20.02
2022-08-19T06:44:40.172Z,20.08
2022-08-19T06:47:14.690Z,20.67
2022-08-19T06:49:50.126Z,23.08
2022-08-19T06:52:17.153Z,17.38
2022-08-19T06:54:55.814Z,20.10
2022-08-19T06:57:24.894Z,22.83
2022-08-19T06:59:51.875Z,22.40
2022-08-19T07:02:19.548Z,20.90
2022-08-19T07:04:46.602Z,16.80
2022-08-19T07:07:21.415Z,16.58
2022-08-19T07:09:51.571Z,17.08
2022-08-19T07:12:24.012Z,18.50
2022-08-19T07:14:50.617Z,19.95
2022-08-19T07:17:17.495Z,21.73
2022-08-19T07:19:44.165Z,18.90
2022-08-19T07:22:13.108Z,20.85
2022-08-19T07:24:40.134Z,21.40
2022-08-19T07:27:18.034Z,17.00
2022-08-19T07:29:56.298Z,23.67
2022-08-19T07:32:28.872Z,19.48
2022-08-19T07:34:56.773Z,20.10
2022-08-19T07:37:31.976Z,21.50
2022-08-19T07:39:59.582Z,21.20
2022-08-19T07:42:26.538Z,22.67
2022-08-19T07:44:53.533Z,19.08
2022-08-19T07:47:49.333Z,20.92
2022-08-19T07:50:10.298Z,23.60
2022-08-19T07:52:40.371Z,20.40
2022-08-19T07:55:39.908Z,20.98
2022-08-19T07:57:56.568Z,21.35
2022-08-19T08:00:24.409Z,20.50
2022-08-19T08:02:51.929Z,21.58
2022-08-19T08:05:43.683Z,19.10
2022-08-19T08:08:30.098Z,20.73
2022-08-19T08:10:57.461Z,22.73
2022-08-19T08:13:25.067Z,20.98
2022-08-19T08:15:51.704Z,18.92
2022-08-19T08:18:21.761Z,23.50
2022-08-19T08:20:48.599Z,32.72
2022-08-19T08:23:26.132Z,25.73
2022-08-19T08:25:56.025Z,23.83
2022-08-19T08:28:24.018Z,22.17
2022-08-19T08:30:51.534Z,20.17
2022-08-19T08:33:32.858Z,21.38
2022-08-19T08:36:04.174Z,22.55
2022-08-19T08:38:38.782Z,24.30
2022-08-19T08:41:23.772Z,21.58
2022-08-19T08:43:53.804Z,23.85
2022-08-19T08:46:39.273Z,20.85
2022-08-19T08:49:16.643Z,20.35
2022-08-19T08:51:48.438Z,19.92
2022-08-19T08:54:38.719Z,21.95
2022-08-19T08:57:12.887Z,21.38
2022-08-19T08:59:42.206Z,21.50
2022-08-19T09:02:09.705Z,23.20
2022-08-19T09:04:38.674Z,19.33
2022-08-19T09:07:42.798Z,21.83
2022-08-19T09:10:32.766Z,21.52
2022-08-19T09:13:40.224Z,21.80
2022-08-19T09:16:11.336Z,24.85
2022-08-19T09:18:48.056Z,23.20
2022-08-19T09:21:16.536Z,22.75
2022-08-19T09:23:44.554Z,20.10
2022-08-19T09:26:16.785Z,21.65
2022-08-19T09:28:45.335Z,25.08
2022-08-19T09:33:47.208Z,20.50
2022-08-19T09:36:25.998Z,18.17
2022-08-19T09:39:02.167Z,18.33
2022-08-19T09:41:29.876Z,20.17
2022-08-19T09:43:58.198Z,18.73
2022-08-19T09:46:28.416Z,20.38
2022-08-19T09:49:06.140Z,17.70
2022-08-19T09:51:35.092Z,18.85
2022-08-19T09:54:05.281Z,16.65
2022-08-19T09:56:33.916Z,16.90
2022-08-19T09:59:02.706Z,11.88
2022-08-19T10:01:31.151Z,12.32
2022-08-19T10:03:59.719Z,12.82
2022-08-19T10:06:46.252Z,16.45
2022-08-19T10:09:15.302Z,18.40
2022-08-19T10:11:52.248Z,15.68
2022-08-19T10:14:23.517Z,15.55
2022-08-19T10:16:52.060Z,17.10
2022-08-19T10:19:25.958Z,14.48
2022-08-19T10:24:21.496Z,13.93
2022-08-19T10:26:56.013Z,15.57
2022-08-19T10:29:32.084Z,20.13
2022-08-19T10:32:09.774Z,27.05
2022-08-19T10:34:47.879Z,21.00
2022-08-19T10:37:14.816Z,21.33
2022-08-19T10:39:42.734Z,26.92
2022-08-19T10:42:14.444Z,22.85
2022-08-19T10:44:41.716Z,22.83
2022-08-19T10:47:17.685Z,15.70
2022-08-19T10:50:11.693Z,18.55
2022-08-19T10:52:49.031Z,19.45
2022-08-19T10:55:36.215Z,17.63
2022-08-19T10:58:03.172Z,21.27
2022-08-19T11:00:32.438Z,19.13
2022-08-19T11:02:59.236Z,18.75
2022-08-19T11:05:25.893Z,15.52
2022-08-19T11:07:53.002Z,19.80
2022-08-19T11:10:21.813Z,17.40
2022-08-19T11:12:49.452Z,19.85
2022-08-19T11:15:16.934Z,20.52
2022-08-19T11:17:44.564Z,22.20
2022-08-19T11:20:15.955Z,23.08
2022-08-19T11:22:43.215Z,20.02
2022-08-19T11:25:11.700Z,17.70
2022-08-19T11:27:40.929Z,18.65
2022-08-19T11:30:08.676Z,22.83
2022-08-19T11:32:43.582Z,17.67
2022-08-19T11:35:14.573Z,17.85
2022-08-19T11:37:41.694Z,17.20
2022-08-19T11:40:09.511Z,17.10
2022-08-19T11:42:54.713Z,21.55
2022-08-19T11:45:21.652Z,16.95
2022-08-19T11:47:48.677Z,19.55
2022-08-19T11:50:16.711Z,17.42
2022-08-19T11:52:44.874Z,18.60
2022-08-19T11:55:12.107Z,16.25
2022-08-19T11:57:39.213Z,16.75
2022-08-19T12:00:08.073Z,21.98
2022-08-19T12:02:34.805Z,15.27
2022-08-19T12:05:03.934Z,18.42
2022-08-19T12:07:34.083Z,20.38
2022-08-19T12:10:01.843Z,17.70
2022-08-19T12:12:30.376Z,17.40
2022-08-19T12:14:59.411Z,18.60
2022-08-19T12:17:29.695Z,17.92
2022-08-19T12:19:56.478Z,17.63
2022-08-19T12:22:23.576Z,18.33
2022-08-19T12:24:55.545Z,17.27
2022-08-19T12:27:35.729Z,20.65
2022-08-19T12:30:14.618Z,14.75
2022-08-19T12:32:41.635Z,14.25
2022-08-19T12:35:10.104Z,16.77
2022-08-19T12:37:36.899Z,14.40
2022-08-19T12:40:06.341Z,16.92
2022-08-19T12:42:33.013Z,14.73
2022-08-19T12:44:59.812Z,15.60
2022-08-19T12:47:27.578Z,15.00
2022-08-19T12:49:56.028Z,14.02
2022-08-19T12:52:26.846Z,12.20
2022-08-19T12:54:55.966Z,16.77
2022-08-19T12:57:31.906Z,15.30
2022-08-19T13:00:04.715Z,14.05
2022-08-19T13:02:33.143Z,11.02
2022-08-19T13:05:09.189Z,17.35
2022-08-19T13:07:36.409Z,12.90
2022-08-19T13:10:03.594Z,12.43
2022-08-19T13:12:30.391Z,13.18
2022-08-19T13:14:57.431Z,11.40
2022-08-19T13:17:25.383Z,10.48
2022-08-19T13:19:52.514Z,14.07
2022-08-19T13:22:19.254Z,12.43
2022-08-19T13:24:47.556Z,12.57
2022-08-19T13:27:14.873Z,13.43
2022-08-19T13:30:01.482Z,14.73
2022-08-19T13:32:47.914Z,17.52
2022-08-19T13:35:17.061Z,11.52
2022-08-19T13:37:44.210Z,14.90
2022-08-19T13:40:19.524Z,18.45
2022-08-19T13:42:48.407Z,13.07
2022-08-19T13:45:18.923Z,13.48
2022-08-19T13:47:47.189Z,17.13
2022-08-19T13:50:20.780Z,14.55
2022-08-19T13:52:48.557Z,14.32
2022-08-19T13:55:16.254Z,13.45
2022-08-19T13:57:54.132Z,13.40
2022-08-19T14:00:22.271Z,15.50
2022-08-19T14:02:52.973Z,11.43
2022-08-19T14:05:20.393Z,14.43
2022-08-19T14:07:47.219Z,15.45
2022-08-19T14:10:14.782Z,13.80
2022-08-19T14:12:41.464Z,15.05
2022-08-19T14:15:10.647Z,14.02
2022-08-19T14:17:42.404Z,15.68
2022-08-19T14:20:18.588Z,12.90
2022-08-19T14:22:47.690Z,16.55
2022-08-19T14:25:24.074Z,13.50
2022-08-19T14:27:50.965Z,13.50
2022-08-19T14:30:26.430Z,14.60
2022-08-19T14:32:53.622Z,14.93
2022-08-19T14:35:23.782Z,19.23
2022-08-19T14:37:51.229Z,18.02
2022-08-19T14:40:22.202Z,18.98
2022-08-19T14:42:49.463Z,18.00
2022-08-19T14:45:16.376Z,18.38
2022-08-19T14:47:43.238Z,21.80
2022-08-19T14:50:17.706Z,25.65
2022-08-19T14:52:46.683Z,16.95
2022-08-19T14:55:13.427Z,14.38
2022-08-19T14:57:42.492Z,16.45
2022-08-19T15:00:16.321Z,19.30
2022-08-19T15:02:45.250Z,16.35
2022-08-19T15:05:12.382Z,11.82
2022-08-19T15:07:40.401Z,13.10
2022-08-19T15:10:08.594Z,19.02
2022-08-19T15:12:36.394Z,13.15
2022-08-19T15:15:03.718Z,14.07
2022-08-19T15:17:35.333Z,13.38
2022-08-19T15:22:42.155Z,17.65
2022-08-19T15:25:11.887Z,15.68
2022-08-19T15:27:40.008Z,15.38
2022-08-19T15:30:09.272Z,16.15
2022-08-19T15:32:37.535Z,5.82
2022-08-19T15:35:06.083Z,8.57
2022-08-19T15:37:32.922Z,5.05
2022-08-19T15:40:06.070Z,8.05
2022-08-19T15:42:33.711Z,9.85
2022-08-19T15:45:01.079Z,11.48
2022-08-19T15:47:35.229Z,12.70
2022-08-19T15:50:22.682Z,9.52
2022-08-19T15:52:56.624Z,18.35
2022-08-19T15:55:32.997Z,17.50
2022-08-19T15:58:29.991Z,10.98
2022-08-19T16:01:27.379Z,4.68
2022-08-19T16:04:15.813Z,4.15
2022-08-19T16:06:55.153Z,6.20
2022-08-19T16:09:27.692Z,4.07
2022-08-19T16:11:57.207Z,6.55
2022-08-19T16:14:29.417Z,9.32
2022-08-19T16:16:56.842Z,6.30
2022-08-19T16:19:24.765Z,9.23
2022-08-19T16:21:53.089Z,3.17
2022-08-19T16:24:23.064Z,5.10
2022-08-19T16:26:50.173Z,11.73
2022-08-19T16:29:22.066Z,8.80
2022-08-19T16:32:02.789Z,8.43
2022-08-19T16:34:30.256Z,7.88
2022-08-19T16:36:57.251Z,7.43
2022-08-19T16:39:24.232Z,4.05
2022-08-19T16:41:51.621Z,9.52
2022-08-19T16:44:20.772Z,7.22
2022-08-19T16:46:52.577Z,3.25
2022-08-19T16:49:52.184Z,7.63
2022-08-19T16:52:14.895Z,6.57
2022-08-19T16:54:43.593Z,8.50
2022-08-19T16:57:11.798Z,6.07
2022-08-19T16:59:48.432Z,9.43
2022-08-19T17:02:20.347Z,6.80
2022-08-19T17:04:58.221Z,10.27
2022-08-19T17:07:33.363Z,7.53
2022-08-19T17:10:02.394Z,5.68
2022-08-19T17:12:32.192Z,6.03
2022-08-19T17:15:04.126Z,5.75
2022-08-19T17:17:31.613Z,6.35
2022-08-19T17:20:00.236Z,3.35
2022-08-19T17:22:27.324Z,5.35
2022-08-19T17:24:56.189Z,6.30
2022-08-19T17:27:24.850Z,8.48
2022-08-19T17:29:52.977Z,6.43
2022-08-19T17:32:24.920Z,6.47
2022-08-19T17:37:19.192Z,4.28
2022-08-19T17:39:46.330Z,6.57
2022-08-19T17:42:13.012Z,5.00
2022-08-19T17:44:40.901Z,6.03
2022-08-19T17:47:07.778Z,8.48
2022-08-19T17:49:34.775Z,2.40
2022-08-19T17:52:01.680Z,6.75
2022-08-19T17:54:33.598Z,4.95
2022-08-19T17:59:30.142Z,4.75
2022-08-19T18:01:57.392Z,10.00
2022-08-19T18:04:25.696Z,7.47
2022-08-19T18:06:55.040Z,4.72
2022-08-19T18:09:41.863Z,3.60
2022-08-19T18:12:13.465Z,7.93
2022-08-19T18:14:41.163Z,5.50
2022-08-19T18:17:12.759Z,7.13
2022-08-19T18:19:44.011Z,4.65
2022-08-19T18:22:27.771Z,6.85
2022-08-19T18:24:55.637Z,2.47
2022-08-19T18:27:22.477Z,5.80
2022-08-19T18:29:49.567Z,6.40
2022-08-19T18:32:18.161Z,10.73
2022-08-19T18:34:50.341Z,3.28
2022-08-19T18:37:17.167Z,8.48
2022-08-19T18:40:02.501Z,5.78
2022-08-19T18:42:47.519Z,7.57
2022-08-19T18:45:32.903Z,4.10
2022-08-19T18:48:26.323Z,6.40
2022-08-19T18:50:55.900Z,5.78
2022-08-19T18:53:22.613Z,7.15
2022-08-19T18:55:51.978Z,4.18
2022-08-19T18:58:19.632Z,3.90
2022-08-19T19:00:47.511Z,5.07
2022-08-19T19:03:14.425Z,3.83
2022-08-19T19:05:41.101Z,6.65
2022-08-19T19:08:08.427Z,3.65
2022-08-19T19:10:36.254Z,5.60
2022-08-19T19:13:03.061Z,3.00
2022-08-19T19:15:29.944Z,4.97
2022-08-19T19:17:57.009Z,2.70
2022-08-19T19:20:36.214Z,13.60
2022-08-19T19:23:04.189Z,3.35
2022-08-19T19:25:50.036Z,5.47
2022-08-19T19:28:17.634Z,7.85
2022-08-19T19:30:44.412Z,6.18
2022-08-19T19:33:12.094Z,8.38
2022-08-19T19:35:40.998Z,8.73
2022-08-19T19:38:12.489Z,5.75
2022-08-19T19:40:39.207Z,5.18
2022-08-19T19:43:06.301Z,6.38
2022-08-19T19:45:33.539Z,6.60
2022-08-19T19:48:00.622Z,5.72
2022-08-19T19:50:30.245Z,6.93
2022-08-19T19:52:57.837Z,5.60
2022-08-19T19:55:26.489Z,5.05
2022-08-19T19:57:54.106Z,5.45
2022-08-19T20:00:22.131Z,7.38
2022-08-19T20:02:50.869Z,6.35
2022-08-19T20:05:21.424Z,7.88
2022-08-19T20:08:07.708Z,6.95
2022-08-19T20:10:35.235Z,6.75
2022-08-19T20:13:02.706Z,8.20
2022-08-19T20:15:31.497Z,10.55
2022-08-19T20:18:04.742Z,11.10
2022-08-19T20:20:31.793Z,5.70
2022-08-19T20:22:58.961Z,11.43
2022-08-19T20:25:25.813Z,6.95
2022-08-19T20:27:52.610Z,8.68
2022-08-19T20:30:23.157Z,11.30
2022-08-19T20:32:50.785Z,9.02
2022-08-19T20:35:19.407Z,15.23
2022-08-19T20:37:46.451Z,10.85
2022-08-19T20:40:13.865Z,10.75
2022-08-19T20:42:41.922Z,10.82
2022-08-19T20:45:26.715Z,10.23
2022-08-19T20:47:57.996Z,11.75
2022-08-19T20:50:26.091Z,10.90
2022-08-19T20:52:56.848Z,16.05
2022-08-19T20:55:23.544Z,21.33
2022-08-19T20:57:50.314Z,9.52
2022-08-19T21:00:17.381Z,10.13
2022-08-19T21:02:44.100Z,8.63
2022-08-19T21:05:11.214Z,9.25
2022-08-19T21:07:49.144Z,14.60
2022-08-19T21:10:16.765Z,9.40
2022-08-19T21:12:44.457Z,13.80
2022-08-19T21:15:11.375Z,6.90
2022-08-19T21:17:38.107Z,9.10
2022-08-19T21:20:07.650Z,8.73
2022-08-19T21:22:34.370Z,7.68
2022-08-19T21:25:02.714Z,10.77
2022-08-19T21:27:29.388Z,7.25
2022-08-19T21:29:56.049Z,8.13
2022-08-19T21:32:24.481Z,9.98
2022-08-19T21:34:52.771Z,10.15
2022-08-19T21:37:25.781Z,9.32
2022-08-19T21:39:54.963Z,6.97
2022-08-19T21:42:24.700Z,7.30
2022-08-19T21:44:51.716Z,10.45
2022-08-19T21:47:18.665Z,9.15
2022-08-19T21:49:46.054Z,11.82
2022-08-19T21:52:13.383Z,6.47
2022-08-19T21:54:40.335Z,9.88
2022-08-19T21:57:10.611Z,10.85
2022-08-19T21:59:41.127Z,7.82
2022-08-19T22:02:20.348Z,14.05
2022-08-19T22:04:49.223Z,8.90
2022-08-19T22:07:15.989Z,9.65
2022-08-19T22:09:44.772Z,10.57
2022-08-19T22:12:23.453Z,13.20
2022-08-19T22:14:51.868Z,10.48
2022-08-19T22:17:19.879Z,10.32
2022-08-19T22:19:46.914Z,10.52
2022-08-19T22:22:24.624Z,14.52
2022-08-19T22:24:52.976Z,13.27
2022-08-19T22:27:20.720Z,12.80
2022-08-19T22:29:47.428Z,9.57
2022-08-19T22:32:28.035Z,10.20
2022-08-19T22:34:57.733Z,11.55
2022-08-19T22:37:24.493Z,9.55
2022-08-19T22:39:51.354Z,8.93
2022-08-19T22:42:20.131Z,8.50
2022-08-19T22:44:47.207Z,8.80
2022-08-19T22:47:13.890Z,9.82
2022-08-19T22:49:40.819Z,11.15
2022-08-19T22:52:19.794Z,8.43
2022-08-19T22:54:49.066Z,7.40
2022-08-19T22:57:16.865Z,6.40
2022-08-19T22:59:43.638Z,10.13
2022-08-19T23:02:10.411Z,6.65
2022-08-19T23:04:37.079Z,6.63
2022-08-19T23:07:05.191Z,6.38
2022-08-19T23:09:32.250Z,8.77
2022-08-19T23:12:00.616Z,10.40
2022-08-19T23:14:28.095Z,9.25
2022-08-19T23:16:58.767Z,9.27
2022-08-19T23:19:25.899Z,9.45
2022-08-19T23:21:52.956Z,7.05
2022-08-19T23:24:19.619Z,8.05
2022-08-19T23:27:05.013Z,10.10
2022-08-19T23:29:50.401Z,8.70
2022-08-19T23:32:19.509Z,6.22
2022-08-19T23:34:46.732Z,5.07
2022-08-19T23:37:13.654Z,6.35
2022-08-19T23:39:40.801Z,6.47
2022-08-19T23:42:11.466Z,7.30
2022-08-19T23:44:52.203Z,7.03
2022-08-19T23:47:20.219Z,6.10
2022-08-19T23:49:48.578Z,8.77
2022-08-19T23:52:15.349Z,10.10
2022-08-19T23:54:43.667Z,6.47
2022-08-19T23:57:13.830Z,6.97
2022-08-19T23:59:42.593Z,7.60
